Terminal Aerodrome Forecast
Issued by NWS

Home | Current Version | Previous Version | Text Only | Print | Product List | Glossary On
Versions: 1 2 3 4 5 6 7 8 9 10 11 12 13 14 15 16 17 18 19 20 21 22 23 24 25 26 27 28 29 30 31 32 33 34 35 36 37 38 39 40 41 42 43
000
FTUS44 KHGX 290239 AAA
TAFCXO
TAF AMD
KCXO 290239Z 2903/2924 00000KT P6SM OVC250
      TEMPO 2903/2905 03009KT
     FM290530 VRB02KT P6SM OVC250
     FM291000 00000KT 5SM BR SCT100
     FM291400 VRB03KT P6SM SCT040
     FM292000 VRB04KT P6SM VCTS SCT050CB BKN250=

USA.gov is the U.S. government's official web portal to all federal, state and local government web resources and services.